Latest Weather Observations for Troughton Island

IDW60801

Issued at 5:43 pm WST Thursday 16 August 2018 (issued every 10 minutes, with the page automatically refreshed every 10 minutes)

About weather observations | Map of weather stations | Latest weather observations for WA | Other Formats
Station Details ID: 001007 Name: TROUGHTON ISLAND Lat: -13.75 Lon: 126.15 Height: 6.0 m
Data from the previous 72 hours. | See also: Recent months at Troughton Island
Date/Time
WST
Temp
°C
App
Temp
°C
Dew
Point
°C
Rel
Hum
%
Delta-T
°C
Wind Press
QNH
hPa
Press
MSL
hPa
Rain since
9am
mm
Dir  Spd
km/h
Gust
km/h
Spd
kts
Gust
kts
16/05:30pm 25.1 26.0 16.5 59 5.3 NNE 7 11 4 6 1011.7 1011.6 0.0
16/05:00pm 26.6 26.1 11.9 40 8.4 N 6 9 3 5 1011.4 1011.3 0.0
16/04:30pm 27.4 26.2 9.7 33 9.8 N 6 9 3 5 1011.2 1011.1 0.0
16/04:00pm 27.6 28.3 16.2 49 7.0 WNW 7 9 4 5 1011.0 1010.9 0.0
16/03:30pm 27.7 27.4 15.4 47 7.5 W 11 13 6 7 1010.9 1010.8 0.0
16/03:00pm 27.9 27.5 15.2 46 7.7 SW 11 13 6 7 1010.8 1010.7 0.0
16/02:30pm 28.2 28.1 16.1 47 7.5 SW 11 15 6 8 1011.0 1010.9 0.0
16/02:00pm 28.0 27.9 16.0 48 7.4 SW 11 13 6 7 1011.0 1010.9 0.0
16/01:30pm 27.6 28.0 17.2 53 6.5 W 11 13 6 7 1011.4 1011.3 0.0
16/01:00pm 27.9 28.2 15.9 48 7.4 WNW 9 11 5 6 1011.7 1011.6 0.0
16/12:30pm 28.1 26.4 9.9 32 10.2 WSW 9 13 5 7 1012.1 1012.0 0.0
16/12:00pm 28.7 26.9 9.4 30 10.7 SSW 9 13 5 7 1012.4 1012.3 0.0
16/11:30am 28.1 26.6 12.0 36 9.3 ESE 11 13 6 7 1012.8 1012.7 0.0
16/11:00am 27.3 26.7 14.7 46 7.6 SE 11 15 6 8 1013.3 1013.2 0.0
16/10:30am 26.9 27.1 16.8 54 6.3 ESE 11 15 6 8 1013.6 1013.5 0.0
16/10:00am 26.6 26.6 17.1 56 5.9 SSE 13 17 7 9 1013.9 1013.8 0.0
16/09:30am 26.5 25.3 16.1 52 6.4 S 17 20 9 11 1014.1 1014.0 0.0
16/09:00am 25.7 25.0 16.3 56 5.8 S 15 17 8 9 1014.5 1014.4 0.0
16/08:30am 25.1 24.4 16.5 59 5.3 S 15 19 8 10 1014.5 1014.4 0.0
16/08:00am 24.8 24.1 17.3 63 4.7 S 17 20 9 11 1014.4 1014.3 0.0
16/07:30am 24.3 24.3 17.1 64 4.5 SSE 13 17 7 9 1014.2 1014.1 0.0
16/07:00am 23.6 24.5 18.3 72 3.3 SSE 11 13 6 7 1014.1 1014.0 0.0
16/06:30am 21.6 22.8 18.2 81 2.1 SE 9 11 5 6 1014.0 1013.9 0.0
16/06:00am 20.6 21.5 17.6 83 1.8 SSE 9 11 5 6 1013.8 1013.7 0.0
16/05:30am 19.9 19.8 16.0 78 2.3 S 11 13 6 7 1013.5 1013.4 0.0
16/05:00am 20.6 21.4 17.4 82 2.0 SSW 9 11 5 6 1013.4 1013.3 0.0
16/04:30am 20.4 21.3 17.6 84 1.7 S 9 11 5 6 1013.2 1013.1 0.0
16/04:00am 20.5 21.6 18.1 86 1.5 S 9 11 5 6 1013.3 1013.2 0.0
16/03:30am 20.4 21.3 17.6 84 1.7 S 9 11 5 6 1013.4 1013.3 0.0
16/03:00am 20.5 21.4 17.5 83 1.8 S 9 11 5 6 1013.4 1013.3 0.0
16/02:30am 20.8 22.0 18.2 85 1.6 S 9 11 5 6 1013.6 1013.5 0.0
16/02:00am 21.4 23.2 18.4 83 1.9 SSE 6 7 3 4 1013.8 1013.7 0.0
16/01:30am 21.8 24.5 17.8 78 2.5 CALM 0 0 0 0 1014.1 1014.0 0.0
16/01:00am 21.7 24.6 18.1 80 2.2 CALM 0 0 0 0 1014.2 1014.1 0.0
16/12:30am 21.4 24.2 18.0 81 2.1 CALM 0 4 0 2 1014.4 1014.3 0.0
16/12:00am 21.3 24.1 17.9 81 2.1 CALM 0 4 0 2 1014.7 1014.6 0.0
 
Date/Time
WST
Temp
°C
App
Temp
°C
Dew
Point
°C
Rel
Hum
%
Delta-T
°C
Wind Press
QNH
hPa
Press
MSL
hPa
Rain since
9am
mm
Dir  Spd
km/h
Gust
km/h
Spd
kts
Gust
kts
15/11:30pm 21.2 23.9 17.8 81 2.1 CALM 0 0 0 0 1014.8 1014.7 0.0
15/11:00pm 22.2 23.6 17.3 74 3.0 NNE 6 7 3 4 1015.1 1015.0 0.0
15/10:30pm 22.5 23.3 17.4 73 3.1 NE 9 9 5 5 1015.2 1015.1 0.0
15/10:00pm 23.2 23.4 17.7 71 3.4 ENE 13 15 7 8 1015.4 1015.3 0.0
15/09:30pm 23.6 23.0 17.6 69 3.7 ENE 17 20 9 11 1015.4 1015.3 0.0
15/09:00pm 23.9 22.4 16.7 64 4.4 ENE 20 24 11 13 1015.4 1015.3 0.0
15/08:30pm 23.8 22.7 16.3 63 4.6 ENE 17 20 9 11 1015.2 1015.1 0.0
15/08:00pm 23.9 23.0 15.9 61 4.8 ENE 15 17 8 9 1015.1 1015.0 0.0
15/07:30pm 23.8 23.3 15.8 61 4.8 ENE 13 15 7 8 1014.7 1014.6 0.0
15/07:00pm 23.5 23.1 16.3 64 4.4 NE 13 13 7 7 1014.2 1014.1 0.0
15/06:30pm 24.1 23.7 15.1 57 5.4 NNE 11 13 6 7 1013.7 1013.6 0.0
15/06:00pm 24.3 24.0 15.5 58 5.3 NNE 11 15 6 8 1013.4 1013.3 0.0
15/05:30pm 25.1 24.1 14.6 52 6.3 N 13 20 7 11 1013.2 1013.1 0.0
15/05:00pm 26.1 24.0 11.1 39 8.5 NE 13 15 7 8 1013.1 1013.0 0.0
15/04:30pm 27.0 24.7 8.9 32 9.9 N 11 13 6 7 1013.1 1013.0 0.0
15/04:00pm 28.2 25.6 6.3 25 11.5 NNW 9 11 5 6 1013.0 1012.9 0.0
15/03:30pm 28.8 26.2 6.2 24 11.9 NNW 9 13 5 7 1013.0 1012.9 0.0
15/03:00pm 28.7 26.9 9.4 30 10.7 NNW 9 13 5 7 1013.1 1013.0 0.0
15/02:30pm 29.0 26.2 5.1 22 12.4 ESE 9 11 5 6 1013.3 1013.2 0.0
15/02:00pm 29.5 26.5 6.2 23 12.3 E 11 15 6 8 1013.5 1013.4 0.0
15/01:30pm 29.4 26.0 6.1 23 12.3 SE 13 15 7 8 1013.8 1013.7 0.0
15/01:00pm 30.0 26.9 9.0 27 11.7 SE 15 19 8 10 1013.9 1013.8 0.0
15/12:30pm 29.3 25.5 8.9 28 11.3 SE 19 26 10 14 1014.3 1014.2 0.0
15/12:00pm 29.0 25.6 11.1 33 10.2 SE 20 24 11 13 1014.7 1014.6 0.0
15/11:30am 29.3 24.1 7.2 25 11.9 SE 24 28 13 15 1015.2 1015.1 0.0
15/11:00am 28.9 23.1 6.3 24 11.9 SE 26 32 14 17 1015.6 1015.5 0.0
15/10:30am 28.6 22.3 5.5 23 12.0 SE 28 33 15 18 1016.3 1016.2 0.0
15/10:00am 28.0 20.8 5.0 23 11.8 SE 32 37 17 20 1016.7 1016.6 0.0
15/09:30am 27.3 21.8 9.2 32 10.0 SE 28 35 15 19 1017.0 1016.9 0.0
15/09:00am 26.5 20.3 6.0 27 10.6 SE 28 37 15 20 1017.2 1017.1 0.0
15/08:30am 26.0 21.2 8.9 34 9.3 SE 24 32 13 17 1017.0 1016.9 0.0
15/08:00am 25.6 20.6 8.1 33 9.3 SE 24 30 13 16 1016.8 1016.7 0.0
15/07:30am 25.0 19.4 7.2 32 9.3 SE 26 32 14 17 1016.7 1016.6 0.0
15/07:00am 23.9 19.0 8.3 37 8.3 SSE 24 30 13 16 1016.5 1016.4 0.0
15/06:30am 23.4 17.7 6.7 34 8.6 SE 26 30 14 16 1016.2 1016.1 0.0
15/06:00am 22.6 17.8 8.7 41 7.4 SE 24 28 13 15 1016.0 1015.9 0.0
15/05:30am 22.5 17.1 7.9 39 7.6 SE 26 30 14 16 1015.7 1015.6 0.0
15/05:00am 22.6 17.6 9.4 43 7.1 SE 26 32 14 17 1015.4 1015.3 0.0
15/04:30am 22.6 17.6 9.7 44 7.0 SE 26 30 14 16 1015.3 1015.2 0.0
15/04:00am 22.7 17.6 9.1 42 7.3 SE 26 30 14 16 1015.5 1015.4 0.0
15/03:30am 22.5 17.4 9.3 43 7.1 SE 26 32 14 17 1015.6 1015.5 0.0
15/03:00am 22.4 17.9 10.2 46 6.7 SE 24 30 13 16 1015.6 1015.5 0.0
15/02:30am 22.5 18.2 10.9 48 6.4 SE 24 30 13 16 1015.7 1015.6 0.0
15/02:00am 22.6 19.6 12.5 53 5.7 SSE 20 26 11 14 1015.8 1015.7 0.0
15/01:30am 21.9 20.2 14.8 64 4.2 SE 17 20 9 11 1015.9 1015.8 0.0
15/01:00am 22.1 20.7 15.5 66 3.9 SE 17 20 9 11 1015.9 1015.8 0.0
15/12:30am 22.9 20.7 15.0 61 4.7 SE 20 24 11 13 1016.1 1016.0 0.0
15/12:00am 22.9 21.2 16.2 66 4.1 SE 20 24 11 13 1016.3 1016.2 0.0
 
Date/Time
WST
Temp
°C
App
Temp
°C
Dew
Point
°C
Rel
Hum
%
Delta-T
°C
Wind Press
QNH
hPa
Press
MSL
hPa
Rain since
9am
mm
Dir  Spd
km/h
Gust
km/h
Spd
kts
Gust
kts
14/11:30pm 23.6 21.8 15.9 62 4.7 ESE 20 22 11 12 1016.3 1016.2 0.0
14/11:00pm 23.6 22.2 15.6 61 4.8 ESE 17 20 9 11 1016.5 1016.4 0.0
14/10:30pm 23.8 21.6 15.0 57 5.3 E 20 24 11 13 1016.4 1016.3 0.0
14/10:00pm 24.0 21.8 15.0 57 5.4 ENE 20 26 11 14 1016.2 1016.1 0.0
14/09:30pm 23.8 21.1 14.5 56 5.5 ENE 22 26 12 14 1016.4 1016.3 0.0
14/09:00pm 23.7 21.6 14.7 57 5.3 ENE 19 22 10 12 1016.5 1016.4 0.0
14/08:30pm 23.8 21.2 15.0 57 5.3 ENE 22 24 12 13 1016.7 1016.6 0.0
14/08:00pm 23.8 20.8 14.8 57 5.3 ENE 24 28 13 15 1016.6 1016.5 0.0
14/07:30pm 24.0 20.3 13.8 53 6.0 ENE 26 30 14 16 1016.4 1016.3 0.0
14/07:00pm 23.8 20.2 14.2 55 5.6 ENE 26 32 14 17 1016.3 1016.2 0.0
14/06:30pm 23.9 21.0 15.1 58 5.3 ENE 24 30 13 16 1015.9 1015.8 0.0
14/06:00pm 24.0 19.9 13.8 53 6.0 ENE 28 35 15 19 1015.5 1015.4 0.0
14/05:30pm 24.0 20.8 15.2 58 5.3 ENE 26 32 14 17 1015.3 1015.2 0.0
14/05:00pm 24.5 20.3 13.4 50 6.5 ENE 28 33 15 18 1015.2 1015.1 0.0
14/04:30pm 24.9 20.9 14.1 51 6.4 ENE 28 35 15 19 1015.1 1015.0 0.0
14/04:00pm 25.1 20.0 13.0 47 7.0 ENE 32 39 17 21 1014.9 1014.8 0.0
14/03:30pm 25.2 20.3 13.7 49 6.8 ENE 32 39 17 21 1015.0 1014.9 0.0
14/03:00pm 25.4 20.2 13.3 47 7.1 ENE 33 39 18 21 1015.1 1015.0 0.0
14/02:30pm 25.4 20.0 13.9 49 6.8 E 35 43 19 23 1015.1 1015.0 0.0
14/02:00pm 26.0 19.4 11.4 40 8.3 ENE 37 46 20 25 1015.4 1015.3 0.0
14/01:30pm 26.1 20.8 13.2 44 7.5 E 33 43 18 23 1015.9 1015.8 0.0
14/01:00pm 26.3 20.7 12.0 41 8.2 ENE 33 39 18 21 1016.3 1016.2 0.0
14/12:30pm 26.6 20.9 11.9 40 8.4 ENE 33 41 18 22 1016.6 1016.5 0.0
14/12:00pm 27.2 22.9 12.0 38 8.7 E 26 35 14 19 1017.1 1017.0 0.0
14/11:30am 27.7 22.4 7.0 27 11.0 ESE 24 28 13 15 1017.5 1017.4 0.0
14/11:00am 27.2 21.6 7.1 28 10.6 ESE 26 32 14 17 1018.0 1017.9 0.0
14/10:30am 26.9 20.3 7.9 30 10.2 SE 32 37 17 20 1018.3 1018.2 0.0
14/10:00am 26.0 18.4 5.6 27 10.4 ESE 35 43 19 23 1018.4 1018.3 0.0
14/09:30am 25.6 16.7 5.2 27 10.4 ESE 41 52 22 28 1018.5 1018.4 0.0
14/09:00am 24.9 15.4 4.1 26 10.3 ESE 43 50 23 27 1018.7 1018.6 0.0
14/08:30am 24.4 15.8 4.7 28 9.8 ESE 39 48 21 26 1018.9 1018.8 0.0
14/08:00am 24.0 14.7 4.9 29 9.5 SE 43 54 23 29 1018.7 1018.6 0.0
14/07:30am 23.4 14.1 4.9 30 9.2 ESE 43 54 23 29 1018.6 1018.5 0.0
14/07:00am 23.1 14.5 4.6 30 9.1 ESE 39 50 21 27 1018.7 1018.6 0.0
14/06:30am 22.8 13.6 5.3 32 8.7 ESE 43 50 23 27 1018.5 1018.4 0.0
14/06:00am 22.6 13.4 5.5 33 8.6 ESE 43 52 23 28 1017.9 1017.8 0.0
14/05:30am 22.8 14.1 6.1 34 8.5 ESE 41 48 22 26 1017.5 1017.4 0.0
14/05:00am 22.9 14.4 5.3 32 8.8 SE 39 46 21 25 1017.3 1017.2 0.0
14/04:30am 23.2 14.2 4.7 30 9.2 SE 41 46 22 25 1017.1 1017.0 0.0
14/04:00am 23.5 15.2 5.9 32 8.9 SE 39 48 21 26 1017.0 1016.9 0.0
14/03:30am 23.5 15.9 7.6 36 8.3 SE 37 43 20 23 1016.7 1016.6 0.0
14/03:00am 23.7 16.7 6.9 34 8.7 SE 33 44 18 24 1016.8 1016.7 0.0
14/02:30am 23.8 17.1 5.7 31 9.2 SE 30 37 16 20 1017.0 1016.9 0.0
14/02:00am 23.9 17.5 7.1 34 8.7 SE 30 37 16 20 1017.1 1017.0 0.0
14/01:30am 24.2 17.5 7.4 34 8.8 SE 32 37 17 20 1017.3 1017.2 0.0
14/01:00am 24.5 17.8 7.2 33 9.0 SE 32 37 17 20 1017.4 1017.3 0.0
14/12:30am 24.7 18.6 6.4 31 9.4 ESE 28 35 15 19 1017.8 1017.7 0.0
14/12:00am 25.0 18.9 8.1 34 9.0 ESE 30 37 16 20 1018.0 1017.9 0.0
 
Date/Time
WST
Temp
°C
App
Temp
°C
Dew
Point
°C
Rel
Hum
%
Delta-T
°C
Wind Press
QNH
hPa
Press
MSL
hPa
Rain since
9am
mm
Dir  Spd
km/h
Gust
km/h
Spd
kts
Gust
kts
13/11:30pm 24.9 18.7 11.5 43 7.6 E 35 43 19 23 1017.9 1017.8 0.0
13/11:00pm 24.9 19.7 11.5 43 7.6 ESE 30 37 16 20 1018.0 1017.9 0.0
13/10:30pm 24.6 19.3 13.2 49 6.6 ESE 33 39 18 21 1018.0 1017.9 0.0
13/10:00pm 24.4 19.5 14.2 53 6.0 E 33 39 18 21 1017.9 1017.8 0.0
13/09:30pm 24.2 19.8 15.1 56 5.4 E 32 35 17 19 1018.0 1017.9 0.0
13/09:00pm 24.3 19.5 14.1 53 6.0 E 32 35 17 19 1017.9 1017.8 0.0
13/08:30pm 24.2 19.5 14.9 56 5.5 E 33 39 18 21 1017.8 1017.7 0.0
13/08:00pm 24.4 20.2 15.6 58 5.3 E 32 39 17 21 1017.6 1017.5 0.0
13/07:30pm 24.1 20.0 15.9 60 5.0 ENE 32 37 17 20 1017.4 1017.3 0.0
13/07:00pm 24.0 20.7 17.0 65 4.3 ENE 30 35 16 19 1017.0 1016.9 0.0
13/06:30pm 24.3 21.2 16.6 62 4.7 ENE 28 33 15 18 1016.6 1016.5 0.0
13/06:00pm 24.6 22.0 15.8 58 5.3 ENE 24 30 13 16 1016.2 1016.1 0.0

Other Formats:

Comma delimited format used in spreadsheet applications
http://www.bom.gov.au/fwo/IDW60801/IDW60801.94102.axf

JavaScript Object Notation format (JSON) in row-major order
http://www.bom.gov.au/fwo/IDW60801/IDW60801.94102.json